sensor_id;sensor_type;location;lat;lon;timestamp;P1;durP1;ratioP1;P2;durP2;ratioP2
76896;SDS011;65856;52.178;21.176;2024-01-10T00:00:37;82.30;;;28.10;;
76896;SDS011;65856;52.178;21.176;2024-01-10T00:03:03;81.50;;;26.80;;
76896;SDS011;65856;52.178;21.176;2024-01-10T00:05:28;88.80;;;26.20;;
76896;SDS011;65856;52.178;21.176;2024-01-10T00:07:54;73.40;;;25.00;;
76896;SDS011;65856;52.178;21.176;2024-01-10T00:10:19;77.30;;;25.20;;
76896;SDS011;65856;52.178;21.176;2024-01-10T00:12:47;76.70;;;26.00;;
76896;SDS011;65856;52.178;21.176;2024-01-10T00:15:12;80.70;;;25.40;;
76896;SDS011;65856;52.178;21.176;2024-01-10T00:17:39;69.80;;;24.00;;
76896;SDS011;65856;52.178;21.176;2024-01-10T00:20:06;71.90;;;23.90;;
76896;SDS011;65856;52.178;21.176;2024-01-10T00:22:32;72.60;;;24.00;;
76896;SDS011;65856;52.178;21.176;2024-01-10T00:24:57;67.90;;;24.20;;
76896;SDS011;65856;52.178;21.176;2024-01-10T00:27:23;67.00;;;24.50;;
76896;SDS011;65856;52.178;21.176;2024-01-10T00:29:48;69.30;;;23.90;;
76896;SDS011;65856;52.178;21.176;2024-01-10T00:32:16;65.20;;;23.30;;
76896;SDS011;65856;52.178;21.176;2024-01-10T00:34:41;63.80;;;22.80;;
76896;SDS011;65856;52.178;21.176;2024-01-10T00:37:06;67.20;;;23.60;;
76896;SDS011;65856;52.178;21.176;2024-01-10T00:39:32;69.70;;;24.10;;
76896;SDS011;65856;52.178;21.176;2024-01-10T00:41:57;65.50;;;23.30;;
76896;SDS011;65856;52.178;21.176;2024-01-10T00:44:23;68.40;;;23.70;;
76896;SDS011;65856;52.178;21.176;2024-01-10T00:46:48;69.30;;;22.90;;
76896;SDS011;65856;52.178;21.176;2024-01-10T00:49:14;63.90;;;22.40;;
76896;SDS011;65856;52.178;21.176;2024-01-10T00:51:39;64.80;;;23.60;;
76896;SDS011;65856;52.178;21.176;2024-01-10T00:54:04;73.50;;;22.30;;
76896;SDS011;65856;52.178;21.176;2024-01-10T00:56:30;65.90;;;23.30;;
76896;SDS011;65856;52.178;21.176;2024-01-10T00:58:55;68.90;;;23.60;;
76896;SDS011;65856;52.178;21.176;2024-01-10T01:01:23;58.60;;;22.00;;
76896;SDS011;65856;52.178;21.176;2024-01-10T01:03:49;69.80;;;22.80;;
76896;SDS011;65856;52.178;21.176;2024-01-10T01:06:15;68.80;;;23.10;;
76896;SDS011;65856;52.178;21.176;2024-01-10T01:08:40;66.70;;;23.70;;
76896;SDS011;65856;52.178;21.176;2024-01-10T01:11:06;65.40;;;23.40;;
76896;SDS011;65856;52.178;21.176;2024-01-10T01:13:31;67.90;;;23.00;;
76896;SDS011;65856;52.178;21.176;2024-01-10T01:15:56;73.00;;;24.00;;
76896;SDS011;65856;52.178;21.176;2024-01-10T01:18:22;61.50;;;21.90;;
76896;SDS011;65856;52.178;21.176;2024-01-10T01:20:47;68.60;;;23.20;;
76896;SDS011;65856;52.178;21.176;2024-01-10T01:23:15;67.30;;;22.90;;
76896;SDS011;65856;52.178;21.176;2024-01-10T01:25:41;69.00;;;24.40;;
76896;SDS011;65856;52.178;21.176;2024-01-10T01:28:06;71.90;;;25.40;;
76896;SDS011;65856;52.178;21.176;2024-01-10T01:30:31;78.80;;;25.60;;
76896;SDS011;65856;52.178;21.176;2024-01-10T01:32:57;73.20;;;23.50;;
76896;SDS011;65856;52.178;21.176;2024-01-10T01:35:22;63.40;;;23.60;;
76896;SDS011;65856;52.178;21.176;2024-01-10T01:37:48;74.50;;;24.90;;
76896;SDS011;65856;52.178;21.176;2024-01-10T01:40:14;70.20;;;22.70;;
76896;SDS011;65856;52.178;21.176;2024-01-10T01:42:40;62.20;;;21.30;;
76896;SDS011;65856;52.178;21.176;2024-01-10T01:45:05;66.50;;;20.20;;
76896;SDS011;65856;52.178;21.176;2024-01-10T01:47:32;61.50;;;19.80;;
76896;SDS011;65856;52.178;21.176;2024-01-10T01:49:57;55.30;;;19.60;;
76896;SDS011;65856;52.178;21.176;2024-01-10T01:52:23;58.00;;;20.00;;
76896;SDS011;65856;52.178;21.176;2024-01-10T01:54:49;55.00;;;18.10;;
76896;SDS011;65856;52.178;21.176;2024-01-10T01:57:15;60.50;;;19.60;;
76896;SDS011;65856;52.178;21.176;2024-01-10T01:59:40;63.60;;;19.70;;
76896;SDS011;65856;52.178;21.176;2024-01-10T02:02:06;55.10;;;19.90;;
76896;SDS011;65856;52.178;21.176;2024-01-10T02:04:32;60.40;;;18.70;;
76896;SDS011;65856;52.178;21.176;2024-01-10T02:06:59;53.00;;;19.00;;
76896;SDS011;65856;52.178;21.176;2024-01-10T02:09:24;57.90;;;19.80;;
76896;SDS011;65856;52.178;21.176;2024-01-10T02:11:50;62.00;;;21.10;;
76896;SDS011;65856;52.178;21.176;2024-01-10T02:14:15;59.50;;;21.10;;
76896;SDS011;65856;52.178;21.176;2024-01-10T02:16:41;52.10;;;20.00;;
76896;SDS011;65856;52.178;21.176;2024-01-10T02:19:20;63.60;;;21.50;;
76896;SDS011;65856;52.178;21.176;2024-01-10T02:21:47;59.70;;;19.20;;
76896;SDS011;65856;52.178;21.176;2024-01-10T02:24:12;61.10;;;20.00;;
76896;SDS011;65856;52.178;21.176;2024-01-10T02:26:39;56.40;;;19.50;;
76896;SDS011;65856;52.178;21.176;2024-01-10T02:29:04;60.40;;;19.10;;
76896;SDS011;65856;52.178;21.176;2024-01-10T02:31:30;63.00;;;20.40;;
76896;SDS011;65856;52.178;21.176;2024-01-10T02:33:55;53.50;;;18.50;;
76896;SDS011;65856;52.178;21.176;2024-01-10T02:36:20;57.00;;;19.70;;
76896;SDS011;65856;52.178;21.176;2024-01-10T02:38:46;64.30;;;20.40;;
76896;SDS011;65856;52.178;21.176;2024-01-10T02:41:12;63.70;;;20.10;;
76896;SDS011;65856;52.178;21.176;2024-01-10T02:43:38;61.80;;;21.00;;
76896;SDS011;65856;52.178;21.176;2024-01-10T02:46:04;57.90;;;20.50;;
76896;SDS011;65856;52.178;21.176;2024-01-10T02:48:29;65.80;;;22.20;;
76896;SDS011;65856;52.178;21.176;2024-01-10T02:50:54;56.50;;;20.20;;
76896;SDS011;65856;52.178;21.176;2024-01-10T02:53:21;57.60;;;19.20;;
76896;SDS011;65856;52.178;21.176;2024-01-10T02:55:46;60.50;;;19.90;;
76896;SDS011;65856;52.178;21.176;2024-01-10T02:58:13;66.60;;;22.20;;
76896;SDS011;65856;52.178;21.176;2024-01-10T03:00:38;65.20;;;21.90;;
76896;SDS011;65856;52.178;21.176;2024-01-10T03:03:04;58.00;;;20.40;;
76896;SDS011;65856;52.178;21.176;2024-01-10T03:05:29;63.20;;;20.90;;
76896;SDS011;65856;52.178;21.176;2024-01-10T03:07:55;62.20;;;21.20;;
76896;SDS011;65856;52.178;21.176;2024-01-10T03:10:20;61.50;;;21.00;;
76896;SDS011;65856;52.178;21.176;2024-01-10T03:12:45;57.10;;;20.90;;
76896;SDS011;65856;52.178;21.176;2024-01-10T03:15:11;64.00;;;22.70;;
76896;SDS011;65856;52.178;21.176;2024-01-10T03:17:36;58.20;;;22.10;;
76896;SDS011;65856;52.178;21.176;2024-01-10T03:20:02;67.00;;;22.40;;
76896;SDS011;65856;52.178;21.176;2024-01-10T03:22:30;58.10;;;21.00;;
76896;SDS011;65856;52.178;21.176;2024-01-10T03:24:56;58.90;;;20.00;;
76896;SDS011;65856;52.178;21.176;2024-01-10T03:27:22;61.10;;;20.90;;
76896;SDS011;65856;52.178;21.176;2024-01-10T03:29:47;69.00;;;21.50;;
76896;SDS011;65856;52.178;21.176;2024-01-10T03:32:12;59.10;;;20.50;;
76896;SDS011;65856;52.178;21.176;2024-01-10T03:34:38;65.10;;;21.70;;
76896;SDS011;65856;52.178;21.176;2024-01-10T03:37:03;61.40;;;21.00;;
76896;SDS011;65856;52.178;21.176;2024-01-10T03:39:29;64.90;;;20.70;;
76896;SDS011;65856;52.178;21.176;2024-01-10T03:41:55;60.00;;;21.00;;
76896;SDS011;65856;52.178;21.176;2024-01-10T03:44:21;49.60;;;18.50;;
76896;SDS011;65856;52.178;21.176;2024-01-10T03:46:46;58.00;;;21.20;;
76896;SDS011;65856;52.178;21.176;2024-01-10T03:49:12;63.70;;;21.90;;
76896;SDS011;65856;52.178;21.176;2024-01-10T03:51:37;60.60;;;22.10;;
76896;SDS011;65856;52.178;21.176;2024-01-10T03:54:02;59.00;;;22.20;;
76896;SDS011;65856;52.178;21.176;2024-01-10T03:56:28;60.90;;;21.30;;
76896;SDS011;65856;52.178;21.176;2024-01-10T03:58:54;62.80;;;22.60;;
76896;SDS011;65856;52.178;21.176;2024-01-10T04:01:22;57.50;;;22.40;;
76896;SDS011;65856;52.178;21.176;2024-01-10T04:03:48;62.00;;;23.20;;
76896;SDS011;65856;52.178;21.176;2024-01-10T04:06:14;64.60;;;23.00;;
76896;SDS011;65856;52.178;21.176;2024-01-10T04:08:39;62.50;;;22.70;;
76896;SDS011;65856;52.178;21.176;2024-01-10T04:11:05;62.80;;;22.50;;
76896;SDS011;65856;52.178;21.176;2024-01-10T04:13:30;63.10;;;22.00;;
76896;SDS011;65856;52.178;21.176;2024-01-10T04:15:55;56.30;;;21.40;;
76896;SDS011;65856;52.178;21.176;2024-01-10T04:18:21;54.90;;;21.00;;
76896;SDS011;65856;52.178;21.176;2024-01-10T04:20:47;59.30;;;22.20;;
76896;SDS011;65856;52.178;21.176;2024-01-10T04:23:14;62.60;;;22.70;;
76896;SDS011;65856;52.178;21.176;2024-01-10T04:25:39;62.70;;;22.90;;
76896;SDS011;65856;52.178;21.176;2024-01-10T04:28:05;71.60;;;23.50;;
76896;SDS011;65856;52.178;21.176;2024-01-10T04:30:30;64.30;;;23.60;;
76896;SDS011;65856;52.178;21.176;2024-01-10T04:32:56;63.00;;;22.20;;
76896;SDS011;65856;52.178;21.176;2024-01-10T04:35:21;64.80;;;24.00;;
76896;SDS011;65856;52.178;21.176;2024-01-10T04:37:47;65.20;;;23.80;;
76896;SDS011;65856;52.178;21.176;2024-01-10T04:40:12;61.70;;;23.90;;
76896;SDS011;65856;52.178;21.176;2024-01-10T04:42:37;72.20;;;24.50;;
76896;SDS011;65856;52.178;21.176;2024-01-10T04:45:03;67.40;;;22.90;;
76896;SDS011;65856;52.178;21.176;2024-01-10T04:47:29;63.40;;;23.30;;
76896;SDS011;65856;52.178;21.176;2024-01-10T04:49:55;63.10;;;21.70;;
76896;SDS011;65856;52.178;21.176;2024-01-10T04:52:20;65.80;;;23.70;;
76896;SDS011;65856;52.178;21.176;2024-01-10T04:54:46;64.40;;;23.30;;
76896;SDS011;65856;52.178;21.176;2024-01-10T04:57:11;64.10;;;23.00;;
76896;SDS011;65856;52.178;21.176;2024-01-10T04:59:36;60.40;;;22.20;;
76896;SDS011;65856;52.178;21.176;2024-01-10T05:02:02;63.60;;;22.50;;
76896;SDS011;65856;52.178;21.176;2024-01-10T05:04:27;60.90;;;22.70;;
76896;SDS011;65856;52.178;21.176;2024-01-10T05:06:53;64.20;;;21.80;;
76896;SDS011;65856;52.178;21.176;2024-01-10T05:09:18;62.60;;;22.60;;
76896;SDS011;65856;52.178;21.176;2024-01-10T05:11:44;61.80;;;21.90;;
76896;SDS011;65856;52.178;21.176;2024-01-10T05:14:12;61.90;;;22.30;;
76896;SDS011;65856;52.178;21.176;2024-01-10T05:16:37;60.10;;;21.90;;
76896;SDS011;65856;52.178;21.176;2024-01-10T05:19:03;60.30;;;21.80;;
76896;SDS011;65856;52.178;21.176;2024-01-10T05:21:30;60.60;;;21.20;;
76896;SDS011;65856;52.178;21.176;2024-01-10T05:23:56;64.30;;;23.40;;
76896;SDS011;65856;52.178;21.176;2024-01-10T05:26:21;61.00;;;22.50;;
76896;SDS011;65856;52.178;21.176;2024-01-10T05:28:47;56.70;;;20.10;;
76896;SDS011;65856;52.178;21.176;2024-01-10T05:31:12;59.70;;;21.20;;
76896;SDS011;65856;52.178;21.176;2024-01-10T05:33:38;65.30;;;22.40;;
76896;SDS011;65856;52.178;21.176;2024-01-10T05:36:03;63.20;;;21.60;;
76896;SDS011;65856;52.178;21.176;2024-01-10T05:38:29;58.20;;;21.20;;
76896;SDS011;65856;52.178;21.176;2024-01-10T05:40:54;61.30;;;21.50;;
76896;SDS011;65856;52.178;21.176;2024-01-10T05:43:19;62.40;;;22.20;;
76896;SDS011;65856;52.178;21.176;2024-01-10T05:45:45;61.70;;;22.50;;
76896;SDS011;65856;52.178;21.176;2024-01-10T05:48:10;64.30;;;22.20;;
76896;SDS011;65856;52.178;21.176;2024-01-10T05:50:36;66.00;;;22.70;;
76896;SDS011;65856;52.178;21.176;2024-01-10T05:53:01;62.00;;;20.80;;
76896;SDS011;65856;52.178;21.176;2024-01-10T05:55:27;63.70;;;21.20;;
76896;SDS011;65856;52.178;21.176;2024-01-10T05:57:53;64.00;;;21.60;;
76896;SDS011;65856;52.178;21.176;2024-01-10T06:00:18;62.90;;;21.90;;
76896;SDS011;65856;52.178;21.176;2024-01-10T06:02:46;67.70;;;22.30;;
76896;SDS011;65856;52.178;21.176;2024-01-10T06:05:12;63.30;;;22.30;;
76896;SDS011;65856;52.178;21.176;2024-01-10T06:07:38;57.40;;;19.50;;
76896;SDS011;65856;52.178;21.176;2024-01-10T06:10:06;70.70;;;23.40;;
76896;SDS011;65856;52.178;21.176;2024-01-10T06:12:32;65.80;;;23.40;;
76896;SDS011;65856;52.178;21.176;2024-01-10T06:14:58;67.60;;;25.50;;
76896;SDS011;65856;52.178;21.176;2024-01-10T06:17:24;75.90;;;25.40;;
76896;SDS011;65856;52.178;21.176;2024-01-10T06:19:49;68.70;;;24.40;;
76896;SDS011;65856;52.178;21.176;2024-01-10T06:22:15;60.60;;;22.10;;
76896;SDS011;65856;52.178;21.176;2024-01-10T06:24:42;67.90;;;23.60;;
76896;SDS011;65856;52.178;21.176;2024-01-10T06:27:07;63.00;;;22.20;;
76896;SDS011;65856;52.178;21.176;2024-01-10T06:29:33;67.40;;;24.70;;
76896;SDS011;65856;52.178;21.176;2024-01-10T06:31:59;63.90;;;23.60;;
76896;SDS011;65856;52.178;21.176;2024-01-10T06:34:26;67.80;;;24.60;;
76896;SDS011;65856;52.178;21.176;2024-01-10T06:36:52;71.90;;;22.90;;
76896;SDS011;65856;52.178;21.176;2024-01-10T06:39:18;64.70;;;24.10;;
76896;SDS011;65856;52.178;21.176;2024-01-10T06:41:46;73.50;;;24.80;;
76896;SDS011;65856;52.178;21.176;2024-01-10T06:44:12;70.50;;;23.70;;
76896;SDS011;65856;52.178;21.176;2024-01-10T06:46:37;67.50;;;24.10;;
76896;SDS011;65856;52.178;21.176;2024-01-10T06:49:03;69.00;;;22.50;;
76896;SDS011;65856;52.178;21.176;2024-01-10T06:51:28;74.90;;;26.50;;
76896;SDS011;65856;52.178;21.176;2024-01-10T06:53:54;78.10;;;28.50;;
76896;SDS011;65856;52.178;21.176;2024-01-10T06:56:25;81.30;;;29.50;;
76896;SDS011;65856;52.178;21.176;2024-01-10T06:58:51;85.50;;;28.90;;
76896;SDS011;65856;52.178;21.176;2024-01-10T07:01:16;78.50;;;28.50;;
76896;SDS011;65856;52.178;21.176;2024-01-10T07:03:42;74.80;;;29.50;;
76896;SDS011;65856;52.178;21.176;2024-01-10T07:06:07;71.20;;;26.70;;
76896;SDS011;65856;52.178;21.176;2024-01-10T07:08:33;71.20;;;25.60;;
76896;SDS011;65856;52.178;21.176;2024-01-10T07:10:58;76.50;;;26.00;;
76896;SDS011;65856;52.178;21.176;2024-01-10T07:13:24;76.50;;;26.50;;
76896;SDS011;65856;52.178;21.176;2024-01-10T07:15:49;82.00;;;29.80;;
76896;SDS011;65856;52.178;21.176;2024-01-10T07:18:18;100.90;;;33.50;;
76896;SDS011;65856;52.178;21.176;2024-01-10T07:20:43;94.70;;;30.80;;
76896;SDS011;65856;52.178;21.176;2024-01-10T07:23:08;78.20;;;27.40;;
76896;SDS011;65856;52.178;21.176;2024-01-10T07:25:34;75.20;;;25.90;;
76896;SDS011;65856;52.178;21.176;2024-01-10T07:27:59;66.30;;;24.10;;
76896;SDS011;65856;52.178;21.176;2024-01-10T07:30:26;69.50;;;24.90;;
76896;SDS011;65856;52.178;21.176;2024-01-10T07:32:51;70.50;;;25.90;;
76896;SDS011;65856;52.178;21.176;2024-01-10T07:35:17;61.10;;;24.90;;
76896;SDS011;65856;52.178;21.176;2024-01-10T07:37:42;65.50;;;24.40;;
76896;SDS011;65856;52.178;21.176;2024-01-10T07:40:08;62.90;;;24.50;;
76896;SDS011;65856;52.178;21.176;2024-01-10T07:42:36;75.10;;;27.80;;
76896;SDS011;65856;52.178;21.176;2024-01-10T07:45:03;73.20;;;27.50;;
76896;SDS011;65856;52.178;21.176;2024-01-10T07:47:33;67.40;;;25.50;;
76896;SDS011;65856;52.178;21.176;2024-01-10T07:50:06;76.60;;;29.20;;
76896;SDS011;65856;52.178;21.176;2024-01-10T07:52:32;69.40;;;26.20;;
76896;SDS011;65856;52.178;21.176;2024-01-10T07:54:59;65.70;;;24.40;;
76896;SDS011;65856;52.178;21.176;2024-01-10T07:57:24;72.50;;;26.20;;
76896;SDS011;65856;52.178;21.176;2024-01-10T07:59:50;70.70;;;27.30;;
76896;SDS011;65856;52.178;21.176;2024-01-10T08:02:15;74.60;;;28.40;;
76896;SDS011;65856;52.178;21.176;2024-01-10T08:04:41;69.30;;;27.10;;
76896;SDS011;65856;52.178;21.176;2024-01-10T08:07:07;69.50;;;26.50;;
76896;SDS011;65856;52.178;21.176;2024-01-10T08:09:33;69.80;;;27.20;;
76896;SDS011;65856;52.178;21.176;2024-01-10T08:11:58;69.10;;;26.80;;
76896;SDS011;65856;52.178;21.176;2024-01-10T08:14:24;64.70;;;25.40;;
76896;SDS011;65856;52.178;21.176;2024-01-10T08:16:49;72.00;;;28.20;;
76896;SDS011;65856;52.178;21.176;2024-01-10T08:19:16;74.00;;;26.70;;
76896;SDS011;65856;52.178;21.176;2024-01-10T08:21:41;75.70;;;27.20;;
76896;SDS011;65856;52.178;21.176;2024-01-10T08:24:06;78.10;;;27.80;;
76896;SDS011;65856;52.178;21.176;2024-01-10T08:26:32;74.70;;;28.00;;
76896;SDS011;65856;52.178;21.176;2024-01-10T08:28:57;69.60;;;29.20;;
76896;SDS011;65856;52.178;21.176;2024-01-10T08:31:23;79.00;;;27.70;;
76896;SDS011;65856;52.178;21.176;2024-01-10T08:33:49;76.30;;;28.60;;
76896;SDS011;65856;52.178;21.176;2024-01-10T08:36:14;81.00;;;28.90;;
76896;SDS011;65856;52.178;21.176;2024-01-10T08:38:41;70.90;;;26.80;;
76896;SDS011;65856;52.178;21.176;2024-01-10T08:41:08;75.40;;;28.40;;
76896;SDS011;65856;52.178;21.176;2024-01-10T08:43:37;72.20;;;29.20;;
76896;SDS011;65856;52.178;21.176;2024-01-10T08:46:03;74.50;;;27.50;;
76896;SDS011;65856;52.178;21.176;2024-01-10T08:48:29;65.10;;;25.90;;
76896;SDS011;65856;52.178;21.176;2024-01-10T08:50:54;67.30;;;26.70;;
76896;SDS011;65856;52.178;21.176;2024-01-10T08:53:21;65.00;;;26.50;;
76896;SDS011;65856;52.178;21.176;2024-01-10T08:55:47;71.50;;;27.80;;
76896;SDS011;65856;52.178;21.176;2024-01-10T08:58:13;60.90;;;24.00;;
76896;SDS011;65856;52.178;21.176;2024-01-10T09:00:38;65.20;;;25.30;;
76896;SDS011;65856;52.178;21.176;2024-01-10T09:03:04;66.30;;;24.60;;
76896;SDS011;65856;52.178;21.176;2024-01-10T09:05:29;65.10;;;25.60;;
76896;SDS011;65856;52.178;21.176;2024-01-10T09:07:55;66.20;;;25.90;;
76896;SDS011;65856;52.178;21.176;2024-01-10T09:10:20;69.50;;;26.10;;
76896;SDS011;65856;52.178;21.176;2024-01-10T09:12:47;60.50;;;26.20;;
76896;SDS011;65856;52.178;21.176;2024-01-10T09:15:13;70.70;;;27.10;;
76896;SDS011;65856;52.178;21.176;2024-01-10T09:17:43;71.70;;;27.80;;
76896;SDS011;65856;52.178;21.176;2024-01-10T09:20:09;68.30;;;27.90;;
76896;SDS011;65856;52.178;21.176;2024-01-10T09:22:36;74.00;;;27.20;;
76896;SDS011;65856;52.178;21.176;2024-01-10T09:25:03;71.00;;;28.00;;
76896;SDS011;65856;52.178;21.176;2024-01-10T09:27:32;79.40;;;28.00;;
76896;SDS011;65856;52.178;21.176;2024-01-10T09:30:02;73.70;;;28.40;;
76896;SDS011;65856;52.178;21.176;2024-01-10T09:32:28;74.60;;;29.00;;
76896;SDS011;65856;52.178;21.176;2024-01-10T09:34:55;65.10;;;24.00;;
76896;SDS011;65856;52.178;21.176;2024-01-10T09:37:21;77.10;;;28.20;;
76896;SDS011;65856;52.178;21.176;2024-01-10T09:39:46;61.80;;;26.20;;
76896;SDS011;65856;52.178;21.176;2024-01-10T09:42:13;67.70;;;22.80;;
76896;SDS011;65856;52.178;21.176;2024-01-10T09:44:40;64.30;;;25.80;;
76896;SDS011;65856;52.178;21.176;2024-01-10T09:47:07;64.70;;;24.90;;
76896;SDS011;65856;52.178;21.176;2024-01-10T09:49:34;68.80;;;26.50;;
76896;SDS011;65856;52.178;21.176;2024-01-10T09:52:03;74.90;;;30.50;;
76896;SDS011;65856;52.178;21.176;2024-01-10T09:54:30;67.70;;;25.40;;
76896;SDS011;65856;52.178;21.176;2024-01-10T09:56:57;67.30;;;27.20;;
76896;SDS011;65856;52.178;21.176;2024-01-10T09:59:23;66.10;;;25.30;;
76896;SDS011;65856;52.178;21.176;2024-01-10T10:01:50;80.70;;;29.80;;
76896;SDS011;65856;52.178;21.176;2024-01-10T10:04:17;72.60;;;29.10;;
76896;SDS011;65856;52.178;21.176;2024-01-10T10:06:45;69.00;;;26.70;;
76896;SDS011;65856;52.178;21.176;2024-01-10T10:09:12;68.30;;;26.20;;
76896;SDS011;65856;52.178;21.176;2024-01-10T10:11:38;76.80;;;28.80;;
76896;SDS011;65856;52.178;21.176;2024-01-10T10:14:17;78.40;;;30.90;;
76896;SDS011;65856;52.178;21.176;2024-01-10T10:16:43;68.40;;;27.80;;
76896;SDS011;65856;52.178;21.176;2024-01-10T10:19:09;72.60;;;28.60;;
76896;SDS011;65856;52.178;21.176;2024-01-10T10:21:36;80.80;;;30.20;;
76896;SDS011;65856;52.178;21.176;2024-01-10T10:24:03;81.90;;;30.10;;
76896;SDS011;65856;52.178;21.176;2024-01-10T10:26:33;75.50;;;29.40;;
76896;SDS011;65856;52.178;21.176;2024-01-10T10:28:59;70.20;;;26.20;;
76896;SDS011;65856;52.178;21.176;2024-01-10T10:31:25;74.90;;;29.60;;
76896;SDS011;65856;52.178;21.176;2024-01-10T10:33:51;75.80;;;28.70;;
76896;SDS011;65856;52.178;21.176;2024-01-10T10:36:17;74.20;;;30.40;;
76896;SDS011;65856;52.178;21.176;2024-01-10T10:38:43;75.30;;;29.70;;
76896;SDS011;65856;52.178;21.176;2024-01-10T10:41:08;74.20;;;28.20;;
76896;SDS011;65856;52.178;21.176;2024-01-10T10:43:36;79.20;;;28.90;;
76896;SDS011;65856;52.178;21.176;2024-01-10T10:46:04;84.00;;;31.40;;
76896;SDS011;65856;52.178;21.176;2024-01-10T10:48:34;78.30;;;29.20;;
76896;SDS011;65856;52.178;21.176;2024-01-10T10:53:53;71.90;;;28.20;;
76896;SDS011;65856;52.178;21.176;2024-01-10T10:56:20;70.40;;;28.00;;
76896;SDS011;65856;52.178;21.176;2024-01-10T10:58:45;72.70;;;28.50;;
76896;SDS011;65856;52.178;21.176;2024-01-10T11:01:12;71.50;;;29.20;;
76896;SDS011;65856;52.178;21.176;2024-01-10T11:03:40;80.40;;;30.60;;
76896;SDS011;65856;52.178;21.176;2024-01-10T11:06:07;75.60;;;29.10;;
76896;SDS011;65856;52.178;21.176;2024-01-10T11:08:53;70.50;;;28.30;;
76896;SDS011;65856;52.178;21.176;2024-01-10T11:11:37;74.10;;;28.70;;
76896;SDS011;65856;52.178;21.176;2024-01-10T11:14:34;76.00;;;29.00;;
76896;SDS011;65856;52.178;21.176;2024-01-10T11:17:36;73.60;;;29.40;;
76896;SDS011;65856;52.178;21.176;2024-01-10T11:22:58;73.60;;;28.30;;
76896;SDS011;65856;52.178;21.176;2024-01-10T11:25:27;73.70;;;29.00;;
76896;SDS011;65856;52.178;21.176;2024-01-10T11:27:55;69.50;;;28.20;;
76896;SDS011;65856;52.178;21.176;2024-01-10T11:30:37;72.50;;;28.40;;
76896;SDS011;65856;52.178;21.176;2024-01-10T11:33:23;75.90;;;27.40;;
76896;SDS011;65856;52.178;21.176;2024-01-10T11:36:18;70.80;;;28.10;;
76896;SDS011;65856;52.178;21.176;2024-01-10T11:41:26;71.20;;;28.00;;
76896;SDS011;65856;52.178;21.176;2024-01-10T11:46:40;64.90;;;25.70;;
76896;SDS011;65856;52.178;21.176;2024-01-10T11:49:09;88.30;;;28.50;;
76896;SDS011;65856;52.178;21.176;2024-01-10T11:51:36;80.70;;;30.20;;
76896;SDS011;65856;52.178;21.176;2024-01-10T11:54:04;75.50;;;30.70;;
76896;SDS011;65856;52.178;21.176;2024-01-10T11:56:40;76.70;;;29.70;;
76896;SDS011;65856;52.178;21.176;2024-01-10T11:59:09;75.40;;;27.30;;
76896;SDS011;65856;52.178;21.176;2024-01-10T12:01:38;75.40;;;28.30;;
76896;SDS011;65856;52.178;21.176;2024-01-10T12:04:06;71.30;;;28.60;;
76896;SDS011;65856;52.178;21.176;2024-01-10T12:06:34;71.60;;;27.30;;
76896;SDS011;65856;52.178;21.176;2024-01-10T12:09:01;81.50;;;31.30;;
76896;SDS011;65856;52.178;21.176;2024-01-10T12:11:33;83.90;;;32.70;;
76896;SDS011;65856;52.178;21.176;2024-01-10T12:14:04;82.80;;;31.80;;
76896;SDS011;65856;52.178;21.176;2024-01-10T12:16:30;87.90;;;33.20;;
76896;SDS011;65856;52.178;21.176;2024-01-10T12:18:55;83.50;;;33.50;;
76896;SDS011;65856;52.178;21.176;2024-01-10T12:21:20;79.90;;;32.50;;
76896;SDS011;65856;52.178;21.176;2024-01-10T12:23:46;86.80;;;32.00;;
76896;SDS011;65856;52.178;21.176;2024-01-10T12:26:13;82.10;;;32.30;;
76896;SDS011;65856;52.178;21.176;2024-01-10T12:28:40;82.70;;;32.20;;
76896;SDS011;65856;52.178;21.176;2024-01-10T12:31:07;86.20;;;32.30;;
76896;SDS011;65856;52.178;21.176;2024-01-10T12:33:34;83.80;;;32.40;;
76896;SDS011;65856;52.178;21.176;2024-01-10T12:36:09;78.80;;;30.20;;
76896;SDS011;65856;52.178;21.176;2024-01-10T12:38:36;80.80;;;31.90;;
76896;SDS011;65856;52.178;21.176;2024-01-10T12:41:04;80.50;;;30.60;;
76896;SDS011;65856;52.178;21.176;2024-01-10T12:43:30;89.20;;;32.20;;
76896;SDS011;65856;52.178;21.176;2024-01-10T12:46:11;82.70;;;32.90;;
76896;SDS011;65856;52.178;21.176;2024-01-10T12:48:41;83.40;;;33.30;;
76896;SDS011;65856;52.178;21.176;2024-01-10T12:51:11;85.20;;;32.70;;
76896;SDS011;65856;52.178;21.176;2024-01-10T12:53:39;82.50;;;32.10;;
76896;SDS011;65856;52.178;21.176;2024-01-10T12:56:07;80.40;;;32.10;;
76896;SDS011;65856;52.178;21.176;2024-01-10T12:58:35;74.80;;;28.90;;
76896;SDS011;65856;52.178;21.176;2024-01-10T13:01:04;91.00;;;31.90;;
76896;SDS011;65856;52.178;21.176;2024-01-10T13:03:30;81.30;;;31.60;;
76896;SDS011;65856;52.178;21.176;2024-01-10T13:05:55;76.30;;;29.50;;
76896;SDS011;65856;52.178;21.176;2024-01-10T13:08:21;82.20;;;31.00;;
76896;SDS011;65856;52.178;21.176;2024-01-10T13:10:47;76.40;;;30.60;;
76896;SDS011;65856;52.178;21.176;2024-01-10T13:13:13;79.10;;;31.10;;
76896;SDS011;65856;52.178;21.176;2024-01-10T13:15:47;80.40;;;30.80;;
76896;SDS011;65856;52.178;21.176;2024-01-10T13:18:13;77.30;;;30.10;;
76896;SDS011;65856;52.178;21.176;2024-01-10T13:20:40;79.80;;;30.30;;
76896;SDS011;65856;52.178;21.176;2024-01-10T13:23:08;82.10;;;31.50;;
76896;SDS011;65856;52.178;21.176;2024-01-10T13:25:34;73.80;;;27.30;;
76896;SDS011;65856;52.178;21.176;2024-01-10T13:28:00;77.10;;;29.10;;
76896;SDS011;65856;52.178;21.176;2024-01-10T13:30:26;79.20;;;31.10;;
76896;SDS011;65856;52.178;21.176;2024-01-10T13:32:52;79.30;;;30.20;;
76896;SDS011;65856;52.178;21.176;2024-01-10T13:35:18;81.60;;;29.90;;
76896;SDS011;65856;52.178;21.176;2024-01-10T13:37:44;78.80;;;30.70;;
76896;SDS011;65856;52.178;21.176;2024-01-10T13:40:12;82.80;;;31.00;;
76896;SDS011;65856;52.178;21.176;2024-01-10T13:42:42;73.70;;;29.10;;
76896;SDS011;65856;52.178;21.176;2024-01-10T13:45:08;75.20;;;30.10;;
76896;SDS011;65856;52.178;21.176;2024-01-10T13:47:38;79.80;;;30.30;;
76896;SDS011;65856;52.178;21.176;2024-01-10T13:50:07;82.10;;;31.10;;
76896;SDS011;65856;52.178;21.176;2024-01-10T13:52:34;75.70;;;30.30;;
76896;SDS011;65856;52.178;21.176;2024-01-10T13:55:00;75.70;;;29.20;;
76896;SDS011;65856;52.178;21.176;2024-01-10T13:57:26;79.60;;;30.00;;
76896;SDS011;65856;52.178;21.176;2024-01-10T13:59:52;86.30;;;30.40;;
76896;SDS011;65856;52.178;21.176;2024-01-10T14:02:21;76.40;;;30.30;;
76896;SDS011;65856;52.178;21.176;2024-01-10T14:04:47;78.00;;;30.90;;
76896;SDS011;65856;52.178;21.176;2024-01-10T14:07:12;71.60;;;29.50;;
76896;SDS011;65856;52.178;21.176;2024-01-10T14:09:38;74.60;;;30.30;;
76896;SDS011;65856;52.178;21.176;2024-01-10T14:12:03;82.40;;;31.30;;
76896;SDS011;65856;52.178;21.176;2024-01-10T14:14:29;74.60;;;30.10;;
76896;SDS011;65856;52.178;21.176;2024-01-10T14:16:57;82.80;;;32.00;;